Terminal Aerodrome Forecast
Issued by NWS Charleston, WV

Current Version | Previous Version | Text Only | Print | Product List | Glossary Off
Versions: 1 2 3 4 5 6 7 8 9 10 11 12 13 14 15 16 17 18 19 20 21 22 23 24 25 26 27 28 29 30 31

000
FTUS41 KRLX 180900 AAA
TAFCRW
TAF AMD
KCRW 180911Z 1809/1906 29009G16KT P6SM BKN050
     FM181500 28010G17KT P6SM BKN020
     FM182300 30008G14KT P6SM OVC020
     FM190000 30006KT P6SM OVC012=

USA.gov is the U.S. government's official web portal to all federal, state and local government web resources and services.